createdAt,value
2018-08-28T00:02:09.953Z,62.96
2018-08-28T00:04:39.065Z,62.88
2018-08-28T00:07:08.108Z,62.56
2018-08-28T00:09:37.252Z,62.82
2018-08-28T00:12:06.278Z,63.94
2018-08-28T00:14:36.313Z,63.60
2018-08-28T00:19:42.174Z,64.00
2018-08-28T00:22:11.187Z,64.11
2018-08-28T00:24:40.236Z,64.56
2018-08-28T00:27:09.312Z,66.06
2018-08-28T00:29:39.305Z,66.82
2018-08-28T00:32:08.369Z,67.33
2018-08-28T00:34:37.419Z,68.50
2018-08-28T00:37:08.442Z,69.39
2018-08-28T00:42:13.244Z,68.25
2018-08-28T00:44:42.301Z,67.95
2018-08-28T00:47:11.343Z,69.92
2018-08-28T00:49:41.327Z,70.67
2018-08-28T00:52:10.519Z,70.90
2018-08-28T00:54:39.560Z,69.66
2018-08-28T00:59:44.391Z,70.94
2018-08-28T01:02:15.433Z,68.93
2018-08-28T01:04:44.485Z,70.55
2018-08-28T01:07:13.543Z,72.66
2018-08-28T01:09:42.585Z,71.20
2018-08-28T01:12:11.738Z,70.35
2018-08-28T01:14:41.913Z,71.10
2018-08-28T01:17:10.815Z,72.07
2018-08-28T01:19:39.860Z,77.45
2018-08-28T01:24:45.704Z,73.29
2018-08-28T01:27:15.720Z,72.64
2018-08-28T01:29:44.777Z,75.60
2018-08-28T01:32:13.833Z,75.71
2018-08-28T01:34:42.881Z,80.03
2018-08-28T01:37:11.991Z,81.08
2018-08-28T01:39:41.003Z,79.87
2018-08-28T01:42:10.061Z,79.16
2018-08-28T01:47:14.881Z,75.33
2018-08-28T01:49:43.993Z,76.33
2018-08-28T01:54:48.850Z,76.66
2018-08-28T01:57:17.881Z,75.79
2018-08-28T01:59:46.933Z,78.28
2018-08-28T02:02:15.988Z,76.12
2018-08-28T02:04:45.044Z,80.44
2018-08-28T02:07:14.109Z,78.00
2018-08-28T02:14:11.146Z,80.84
2018-08-28T02:16:40.214Z,85.23
2018-08-28T02:19:09.273Z,84.47
2018-08-28T02:21:38.314Z,81.19
2018-08-28T02:26:43.093Z,86.58
2018-08-28T02:31:47.833Z,87.36
2018-08-28T02:34:16.901Z,87.79
2018-08-28T02:36:45.935Z,84.15
2018-08-28T02:39:14.978Z,87.86
2018-08-28T02:41:44.021Z,84.04
2018-08-28T02:44:14.146Z,84.19
2018-08-28T02:46:43.192Z,84.94
2018-08-28T02:49:12.242Z,88.90
2018-08-28T02:54:18.110Z,86.96
2018-08-28T02:56:49.159Z,88.09
2018-08-28T02:59:18.193Z,85.89
2018-08-28T03:01:47.279Z,89.32
2018-08-28T03:04:16.342Z,90.98
2018-08-28T03:06:45.391Z,88.95
2018-08-28T03:11:50.241Z,84.15
2018-08-28T03:19:35.477Z,89.77
2018-08-28T03:22:04.523Z,91.28
2018-08-28T03:24:33.578Z,92.20
2018-08-28T03:27:02.625Z,92.95
2018-08-28T03:29:31.693Z,91.10
2018-08-28T03:32:02.160Z,87.81
2018-08-28T03:34:31.206Z,88.92
2018-08-28T03:37:00.253Z,89.61
2018-08-28T03:39:29.319Z,91.91
2018-08-28T03:41:58.392Z,92.16
2018-08-28T03:44:27.439Z,92.05
2018-08-28T03:46:56.507Z,91.21
2018-08-28T03:49:25.550Z,92.02
2018-08-28T03:51:54.610Z,92.33
2018-08-28T03:54:23.653Z,93.42
2018-08-28T03:56:52.729Z,95.00
2018-08-28T04:01:57.511Z,96.82
2018-08-28T04:04:26.595Z,95.54
2018-08-28T04:09:31.346Z,96.53
2018-08-28T04:12:00.393Z,96.25
2018-08-28T04:14:29.458Z,96.88
2018-08-28T04:16:58.548Z,96.00
2018-08-28T04:19:27.577Z,97.03
2018-08-28T04:21:56.643Z,97.33
2018-08-28T04:24:25.689Z,95.98
2018-08-28T04:26:54.778Z,95.80
2018-08-28T04:29:23.831Z,92.69
2018-08-28T04:31:52.908Z,93.77
2018-08-28T04:34:21.945Z,92.11
2018-08-28T04:36:51.022Z,91.44
2018-08-28T04:39:20.066Z,92.29
2018-08-28T04:41:49.163Z,92.65
2018-08-28T04:44:18.198Z,94.06
2018-08-28T04:46:47.245Z,92.95
2018-08-28T04:51:52.079Z,92.80
2018-08-28T04:54:21.254Z,92.08
2018-08-28T04:56:50.183Z,91.59
2018-08-28T04:59:19.517Z,92.05
2018-08-28T05:01:48.554Z,93.00
2018-08-28T05:04:17.608Z,91.35
2018-08-28T05:06:46.662Z,91.47
2018-08-28T05:11:52.555Z,92.01
2018-08-28T05:14:21.538Z,91.39
2018-08-28T05:16:50.597Z,90.18
2018-08-28T05:19:20.774Z,90.02
2018-08-28T05:27:01.221Z,87.45
2018-08-28T05:29:30.347Z,87.65
2018-08-28T05:31:59.374Z,88.45
2018-08-28T05:34:28.423Z,88.72
2018-08-28T05:36:57.483Z,89.62
2018-08-28T05:39:26.548Z,89.69
2018-08-28T05:44:31.318Z,88.56
2018-08-28T05:47:01.315Z,87.11
2018-08-28T05:52:07.398Z,84.56
2018-08-28T05:54:36.453Z,85.24
2018-08-28T05:57:05.502Z,84.53
2018-08-28T05:59:34.544Z,85.08
2018-08-28T06:02:03.845Z,83.72
2018-08-28T06:04:32.893Z,81.34
2018-08-28T06:09:37.733Z,77.42
2018-08-28T06:14:42.545Z,78.32
2018-08-28T06:19:47.361Z,77.67
2018-08-28T06:22:16.417Z,77.37
2018-08-28T06:24:46.462Z,76.12
2018-08-28T06:29:51.250Z,75.69
2018-08-28T06:32:20.353Z,74.08
2018-08-28T06:34:49.405Z,74.78
2018-08-28T06:37:22.106Z,73.07
2018-08-28T06:39:51.287Z,73.59
2018-08-28T06:42:20.488Z,71.79
2018-08-28T06:44:49.610Z,72.35
2018-08-28T06:47:18.645Z,72.89
2018-08-28T06:49:47.708Z,70.33
2018-08-28T06:52:18.737Z,70.59
2018-08-28T06:54:49.790Z,73.29
2018-08-28T06:57:19.063Z,71.95
2018-08-28T06:59:48.120Z,73.87
2018-08-28T07:02:17.232Z,73.42
2018-08-28T07:04:46.382Z,72.33
2018-08-28T07:09:51.507Z,72.17
2018-08-28T07:12:20.549Z,72.66
2018-08-28T07:14:50.579Z,71.47
2018-08-28T07:17:21.640Z,72.48
2018-08-28T07:19:50.677Z,72.37
2018-08-28T07:22:21.815Z,72.64
2018-08-28T07:24:51.881Z,72.37
2018-08-28T07:27:20.918Z,72.37
2018-08-28T07:29:51.194Z,71.04
2018-08-28T07:32:20.247Z,70.80
2018-08-28T07:34:49.300Z,67.78
2018-08-28T07:37:20.356Z,68.93
2018-08-28T07:39:49.391Z,67.45
2018-08-28T07:42:21.707Z,67.50
2018-08-28T07:44:51.761Z,65.97
2018-08-28T07:49:57.610Z,65.44
2018-08-28T07:52:27.625Z,65.31
2018-08-28T07:54:56.940Z,64.87
2018-08-28T07:57:26.945Z,63.61
2018-08-28T07:59:56.001Z,65.94
2018-08-28T08:02:25.215Z,60.49
2018-08-28T08:04:54.263Z,61.39
2018-08-28T08:09:59.134Z,59.78
2018-08-28T08:12:28.176Z,64.45
2018-08-28T08:17:33.005Z,58.74
2018-08-28T08:20:02.148Z,62.66
2018-08-28T08:22:31.225Z,61.84
2018-08-28T08:25:00.266Z,60.05
2018-08-28T08:30:05.129Z,60.80
2018-08-28T08:32:34.295Z,59.79
2018-08-28T08:35:03.333Z,59.83
2018-08-28T08:37:32.391Z,62.29
2018-08-28T08:45:14.167Z,60.04
2018-08-28T08:47:43.216Z,58.55
2018-08-28T08:50:12.772Z,57.55
2018-08-28T08:52:41.808Z,57.38
2018-08-28T08:57:46.638Z,54.55
2018-08-28T09:00:15.748Z,54.77
2018-08-28T09:02:45.129Z,50.19
2018-08-28T09:05:14.182Z,48.15
2018-08-28T09:07:43.216Z,46.69
2018-08-28T09:10:13.538Z,47.16
2018-08-28T09:12:42.585Z,44.51
2018-08-28T09:17:47.411Z,44.22
2018-08-28T09:20:18.660Z,42.54
2018-08-28T09:25:23.508Z,43.21
2018-08-28T09:27:52.995Z,42.69
2018-08-28T09:30:22.060Z,41.26
2018-08-28T09:32:51.087Z,39.48
2018-08-28T09:35:20.222Z,40.32
2018-08-28T09:37:49.349Z,43.51
2018-08-28T09:40:18.413Z,42.31
2018-08-28T09:42:47.774Z,38.14
2018-08-28T09:45:16.834Z,34.82
2018-08-28T09:47:45.877Z,34.51
2018-08-28T09:50:16.257Z,34.02
2018-08-28T09:52:45.208Z,35.11
2018-08-28T09:55:15.226Z,31.78
2018-08-28T09:57:45.245Z,32.69
2018-08-28T10:00:14.311Z,32.97
2018-08-28T10:02:44.280Z,33.35
2018-08-28T10:05:13.328Z,33.38
2018-08-28T10:10:18.248Z,32.29
2018-08-28T10:12:47.322Z,30.41
2018-08-28T10:15:17.562Z,33.11
2018-08-28T10:17:46.666Z,36.74
2018-08-28T10:20:15.703Z,36.28
2018-08-28T10:22:44.902Z,36.68
2018-08-28T10:25:13.971Z,38.24
2018-08-28T10:27:43.029Z,38.86
2018-08-28T10:30:12.105Z,39.62
2018-08-28T10:35:19.056Z,38.00
2018-08-28T10:37:48.101Z,37.35
2018-08-28T10:40:17.155Z,32.42
2018-08-28T10:42:47.431Z,32.24
2018-08-28T10:45:16.479Z,29.25
2018-08-28T10:47:45.528Z,29.45
2018-08-28T10:52:52.440Z,27.05
2018-08-28T10:55:21.678Z,26.88
2018-08-28T11:00:26.931Z,27.93
2018-08-28T11:02:55.970Z,27.90
2018-08-28T11:08:01.404Z,26.32
2018-08-28T11:10:30.456Z,26.40
2018-08-28T11:12:59.835Z,27.30
2018-08-28T11:18:04.965Z,26.08
2018-08-28T11:20:34.019Z,23.35
2018-08-28T11:23:03.103Z,27.74
2018-08-28T11:25:32.303Z,25.18
2018-08-28T11:28:01.368Z,29.97
2018-08-28T11:33:06.126Z,27.69
2018-08-28T11:38:10.894Z,28.14
2018-08-28T11:40:41.886Z,26.41
2018-08-28T11:43:12.047Z,26.12
2018-08-28T11:48:18.822Z,23.74
2018-08-28T11:50:47.879Z,22.32
2018-08-28T11:53:16.998Z,27.53
2018-08-28T11:58:21.693Z,23.25
2018-08-28T12:00:50.759Z,22.84
2018-08-28T12:03:19.827Z,23.57
2018-08-28T12:05:48.881Z,22.64
2018-08-28T12:08:18.038Z,22.36
2018-08-28T12:10:47.094Z,23.75
2018-08-28T12:13:16.347Z,22.89
2018-08-28T12:15:45.518Z,21.67
2018-08-28T12:18:14.570Z,22.06
2018-08-28T12:20:45.663Z,21.28
2018-08-28T12:23:18.594Z,22.13
2018-08-28T12:25:47.655Z,21.06
2018-08-28T12:28:17.015Z,23.86
2018-08-28T12:30:46.082Z,21.27
2018-08-28T12:33:15.125Z,22.02
2018-08-28T12:38:19.905Z,20.13
2018-08-28T12:40:49.016Z,19.89
2018-08-28T12:43:18.103Z,20.38
2018-08-28T12:45:47.176Z,20.19
2018-08-28T12:53:28.519Z,20.57
2018-08-28T12:55:57.555Z,21.82
2018-08-28T12:58:26.961Z,21.73
2018-08-28T13:00:56.009Z,22.43
2018-08-28T13:03:25.069Z,20.36
2018-08-28T13:05:54.439Z,19.82
2018-08-28T13:08:23.489Z,21.28
2018-08-28T13:10:52.572Z,21.26
2018-08-28T13:13:21.743Z,23.97
2018-08-28T13:15:50.838Z,26.17
2018-08-28T13:18:19.906Z,22.82
2018-08-28T13:23:24.673Z,23.44
2018-08-28T13:25:54.179Z,23.27
2018-08-28T13:28:23.358Z,22.94
2018-08-28T13:30:52.434Z,22.73
2018-08-28T13:35:57.315Z,23.02
2018-08-28T13:38:27.535Z,21.35
2018-08-28T13:40:56.590Z,21.60
2018-08-28T13:43:25.642Z,23.46
2018-08-28T13:45:55.016Z,26.01
2018-08-28T13:48:27.494Z,25.72
2018-08-28T13:50:56.560Z,25.61
2018-08-28T13:53:29.771Z,23.50
2018-08-28T13:56:02.537Z,22.43
2018-08-28T13:58:32.416Z,25.40
2018-08-28T14:03:38.552Z,25.83
2018-08-28T14:06:07.601Z,25.93
2018-08-28T14:11:12.548Z,22.27
2018-08-28T14:13:41.637Z,21.67
2018-08-28T14:16:10.975Z,23.70
2018-08-28T14:21:15.885Z,25.09
2018-08-28T14:23:44.943Z,24.63
2018-08-28T14:26:14.005Z,23.75
2018-08-28T14:31:18.949Z,23.97
2018-08-28T14:36:23.699Z,25.09
2018-08-28T14:38:55.832Z,22.52
2018-08-28T14:41:24.889Z,22.86
2018-08-28T14:46:30.058Z,22.49
2018-08-28T14:48:59.197Z,22.93
2018-08-28T14:51:28.259Z,23.76
2018-08-28T14:53:57.318Z,24.07
2018-08-28T14:56:26.818Z,28.12
2018-08-28T14:58:55.829Z,27.52
2018-08-28T15:01:24.935Z,28.42
2018-08-28T15:03:54.739Z,32.16
2018-08-28T15:09:00.180Z,32.10
2018-08-28T15:11:29.228Z,33.40
2018-08-28T15:13:58.314Z,36.52
2018-08-28T15:19:04.162Z,43.38
2018-08-28T15:21:33.197Z,41.85
2018-08-28T15:24:02.265Z,35.85
2018-08-28T15:26:31.482Z,32.82
2018-08-28T15:29:00.662Z,31.11
2018-08-28T15:31:29.735Z,30.62
2018-08-28T15:33:59.127Z,27.88
2018-08-28T15:36:28.182Z,27.52
2018-08-28T15:38:57.236Z,26.52
2018-08-28T15:41:27.473Z,26.01
2018-08-28T15:43:58.535Z,27.68
2018-08-28T15:46:27.611Z,28.64
2018-08-28T15:48:56.646Z,29.73
2018-08-28T15:51:25.749Z,31.08
2018-08-28T15:53:54.769Z,32.89
2018-08-28T15:56:24.734Z,33.30
2018-08-28T15:58:53.795Z,31.14
2018-08-28T16:01:22.925Z,32.66
2018-08-28T16:03:52.973Z,31.78
2018-08-28T16:06:24.012Z,34.92
2018-08-28T16:08:53.337Z,37.27
2018-08-28T16:13:58.350Z,41.40
2018-08-28T16:16:27.409Z,41.29
2018-08-28T16:18:56.460Z,44.76
2018-08-28T16:21:25.977Z,44.29
2018-08-28T16:23:55.043Z,47.07
2018-08-28T16:26:24.101Z,46.80
2018-08-28T16:28:53.413Z,45.39
2018-08-28T16:31:22.466Z,45.80
2018-08-28T16:33:57.138Z,47.46
2018-08-28T16:36:26.197Z,45.04
2018-08-28T16:38:55.229Z,47.36
2018-08-28T16:41:24.291Z,49.30
2018-08-28T16:46:29.178Z,50.32
2018-08-28T16:48:58.242Z,50.86
2018-08-28T16:51:27.290Z,49.65
2018-08-28T16:53:56.346Z,51.58
2018-08-28T16:56:25.394Z,50.42
2018-08-28T16:58:54.461Z,52.29
2018-08-28T17:01:23.544Z,51.86
2018-08-28T17:03:52.539Z,54.23
2018-08-28T17:06:22.017Z,54.49
2018-08-28T17:08:51.065Z,54.47
2018-08-28T17:11:20.147Z,54.99
2018-08-28T17:16:25.049Z,57.02
2018-08-28T17:18:54.106Z,56.70
2018-08-28T17:21:24.108Z,57.44
2018-08-28T17:23:53.161Z,57.06
2018-08-28T17:26:22.227Z,57.19
2018-08-28T17:28:51.277Z,53.88
2018-08-28T17:31:21.294Z,57.61
2018-08-28T17:33:51.362Z,60.17
2018-08-28T17:38:56.233Z,56.31
2018-08-28T17:41:25.300Z,57.81
2018-08-28T17:43:55.321Z,57.02
2018-08-28T17:46:26.285Z,57.30
2018-08-28T17:48:55.427Z,58.34
2018-08-28T17:51:24.418Z,61.22
2018-08-28T17:53:53.457Z,61.15
2018-08-28T17:56:22.933Z,62.05
2018-08-28T17:58:51.986Z,59.21
2018-08-28T18:01:21.138Z,59.23
2018-08-28T18:03:50.150Z,59.56
2018-08-28T18:06:19.182Z,61.84
2018-08-28T18:08:48.253Z,59.73
2018-08-28T18:13:53.066Z,61.52
2018-08-28T18:18:57.916Z,60.38
2018-08-28T18:24:02.753Z,62.71
2018-08-28T18:29:07.512Z,63.40
2018-08-28T18:31:36.553Z,64.11
2018-08-28T18:34:05.609Z,66.77
2018-08-28T18:36:34.668Z,67.06
2018-08-28T18:39:03.739Z,68.84
2018-08-28T18:41:32.837Z,67.56
2018-08-28T18:44:01.881Z,68.19
2018-08-28T18:49:06.770Z,66.02
2018-08-28T18:51:35.830Z,68.31
2018-08-28T18:54:04.880Z,68.08
2018-08-28T18:56:33.926Z,70.81
2018-08-28T18:59:02.974Z,69.25
2018-08-28T19:01:32.039Z,71.80
2018-08-28T19:04:01.336Z,69.54
2018-08-28T19:09:06.860Z,69.07
2018-08-28T19:11:35.889Z,74.24
2018-08-28T19:14:04.935Z,74.80
2018-08-28T19:16:36.008Z,76.47
2018-08-28T19:19:05.042Z,75.93
2018-08-28T19:21:34.105Z,74.26
2018-08-28T19:26:38.909Z,74.84
2018-08-28T19:29:07.972Z,75.92
2018-08-28T19:31:37.057Z,76.29
2018-08-28T19:34:06.108Z,79.27
2018-08-28T19:36:35.117Z,74.70
2018-08-28T19:39:04.161Z,80.06
2018-08-28T19:41:33.217Z,79.50
2018-08-28T19:44:02.277Z,80.90
2018-08-28T19:46:31.341Z,77.23
2018-08-28T19:49:00.385Z,79.22
2018-08-28T19:54:05.226Z,77.33
2018-08-28T19:56:35.225Z,81.72
2018-08-28T19:59:04.341Z,83.33
2018-08-28T20:01:33.389Z,82.90
2018-08-28T20:04:02.541Z,82.64
2018-08-28T20:06:31.535Z,83.75
2018-08-28T20:09:00.600Z,79.69
2018-08-28T20:11:29.642Z,83.20
2018-08-28T20:13:58.694Z,85.96
2018-08-28T20:16:27.758Z,84.61
2018-08-28T20:18:56.873Z,85.27
2018-08-28T20:24:01.694Z,79.00
2018-08-28T20:29:06.440Z,84.33
2018-08-28T20:31:45.457Z,86.05
2018-08-28T20:34:16.903Z,87.60
2018-08-28T20:36:45.950Z,83.96
2018-08-28T20:39:15.005Z,86.05
2018-08-28T20:41:44.085Z,82.69
2018-08-28T20:44:15.147Z,85.18
2018-08-28T20:46:44.196Z,87.08
2018-08-28T20:51:49.038Z,85.35
2018-08-28T20:54:18.091Z,85.58
2018-08-28T20:59:22.863Z,85.42
2018-08-28T21:01:51.934Z,85.40
2018-08-28T21:04:20.982Z,83.71
2018-08-28T21:06:50.147Z,89.51
2018-08-28T21:09:20.055Z,90.77
2018-08-28T21:17:00.701Z,88.30
2018-08-28T21:19:31.725Z,86.01
2018-08-28T21:22:00.770Z,88.76
2018-08-28T21:24:29.823Z,90.97
2018-08-28T21:26:58.998Z,87.66
2018-08-28T21:32:03.797Z,92.19
2018-08-28T21:34:32.909Z,87.51
2018-08-28T21:37:01.983Z,89.88
2018-08-28T21:39:31.037Z,91.75
2018-08-28T21:42:00.119Z,90.84
2018-08-28T21:44:29.156Z,91.01
2018-08-28T21:52:09.681Z,90.35
2018-08-28T21:54:38.746Z,87.92
2018-08-28T21:59:43.518Z,92.07
2018-08-28T22:02:14.549Z,94.43
2018-08-28T22:04:43.614Z,94.92
2018-08-28T22:07:12.671Z,94.76
2018-08-28T22:09:41.742Z,90.76
2018-08-28T22:14:46.523Z,96.04
2018-08-28T22:17:15.594Z,96.99
2018-08-28T22:19:44.664Z,97.13
2018-08-28T22:22:14.711Z,96.61
2018-08-28T22:27:19.482Z,96.10
2018-08-28T22:29:49.489Z,94.99
2018-08-28T22:32:19.503Z,95.61
2018-08-28T22:37:24.285Z,92.69
2018-08-28T22:42:29.118Z,92.73
2018-08-28T22:44:59.133Z,95.02
2018-08-28T22:47:28.213Z,93.07
2018-08-28T22:55:08.758Z,94.23
2018-08-28T23:00:13.625Z,94.04
2018-08-28T23:02:42.692Z,93.49
2018-08-28T23:05:11.749Z,95.35
2018-08-28T23:07:40.957Z,96.38
2018-08-28T23:10:10.033Z,97.72
2018-08-28T23:12:39.090Z,98.45
2018-08-28T23:15:08.147Z,97.01
2018-08-28T23:17:37.206Z,97.57
2018-08-28T23:20:07.123Z,98.56
2018-08-28T23:22:37.105Z,96.27
2018-08-28T23:27:41.889Z,97.58
2018-08-28T23:30:10.972Z,92.98
2018-08-28T23:32:40.037Z,93.82
2018-08-28T23:35:09.098Z,91.92
2018-08-28T23:37:38.271Z,93.85
2018-08-28T23:40:07.340Z,94.09
2018-08-28T23:42:36.407Z,97.53
2018-08-28T23:45:05.489Z,97.14
2018-08-28T23:47:34.553Z,97.02
2018-08-28T23:52:39.330Z,98.64
2018-08-28T23:55:08.397Z,96.12
2018-08-28T23:57:38.418Z,96.94
